createdAt,value
2017-10-15T00:06:23.343Z,96.77
2017-10-15T00:26:23.688Z,89.37
2017-10-15T00:46:24.135Z,95.71
2017-10-15T01:06:24.606Z,99.41
2017-10-15T01:26:24.951Z,98.56
2017-10-15T01:46:25.398Z,92.76
2017-10-15T02:06:25.831Z,99.05
2017-10-15T02:26:26.263Z,95.24
2017-10-15T02:46:26.686Z,99.04
2017-10-15T03:06:27.129Z,89.56
2017-10-15T03:26:27.454Z,99.80
2017-10-15T04:11:28.330Z,92.33
2017-10-15T04:36:28.979Z,88.42
2017-10-15T04:56:29.472Z,20.52
2017-10-15T05:16:30.009Z,87.86
2017-10-15T05:35:46.401Z,81.82
2017-10-15T05:55:46.599Z,79.66
2017-10-15T06:15:47.129Z,0.00
2017-10-15T06:35:47.685Z,0.00
2017-10-15T06:55:48.236Z,0.00
2017-10-15T07:15:48.736Z,0.00
2017-10-15T07:35:49.279Z,0.01
2017-10-15T07:55:49.775Z,0.00
2017-10-15T08:15:50.322Z,0.00
2017-10-15T08:35:50.782Z,0.00
2017-10-15T08:55:51.312Z,0.00
2017-10-15T09:15:51.885Z,0.00
2017-10-15T09:35:52.409Z,0.00
2017-10-15T09:55:52.926Z,0.00
2017-10-15T10:15:53.424Z,0.00
2017-10-15T10:40:54.209Z,0.00
2017-10-15T11:00:54.667Z,0.00
2017-10-15T11:20:55.211Z,0.00
2017-10-15T11:40:55.689Z,0.00
2017-10-15T12:00:56.196Z,0.00
2017-10-15T12:20:56.692Z,0.00
2017-10-15T12:40:57.194Z,0.00
2017-10-15T13:00:57.719Z,0.00
2017-10-15T13:20:58.218Z,0.00
2017-10-15T13:40:58.697Z,0.00
2017-10-15T14:00:59.238Z,0.00
2017-10-15T14:20:59.690Z,0.00
2017-10-15T14:41:00.234Z,0.00
2017-10-15T15:01:00.739Z,0.00
2017-10-15T15:21:01.285Z,0.00
2017-10-15T15:41:01.823Z,0.00
2017-10-15T16:01:02.375Z,0.00
2017-10-15T16:21:02.801Z,0.00
2017-10-15T16:41:03.310Z,68.46
2017-10-15T17:01:04.883Z,99.61
2017-10-15T17:21:48.906Z,93.52
2017-10-15T17:41:49.473Z,54.48
2017-10-15T18:16:50.275Z,80.48
2017-10-15T18:36:50.740Z,83.71
2017-10-15T18:56:51.200Z,77.77
2017-10-15T19:16:51.658Z,86.00
2017-10-15T19:36:52.163Z,81.36
2017-10-15T19:56:52.605Z,78.93
2017-10-15T20:16:52.994Z,63.25
2017-10-15T20:36:53.350Z,79.23
2017-10-15T20:56:53.791Z,68.59
2017-10-15T21:16:54.237Z,71.93
2017-10-15T21:36:54.685Z,73.38
2017-10-15T21:56:55.152Z,94.34
2017-10-15T22:16:55.601Z,76.55
2017-10-15T22:36:56.073Z,96.04
2017-10-15T22:56:56.651Z,87.84
2017-10-15T23:16:56.941Z,99.44
2017-10-15T23:36:57.433Z,84.90
2017-10-15T23:56:57.936Z,85.91
